sensor_id;sensor_type;location;lat;lon;timestamp;P1;durP1;ratioP1;P2;durP2;ratioP2
51556;SDS011;38766;53.194;5.532;2023-06-04T00:01:01;9.10;;;3.15;;
51556;SDS011;38766;53.194;5.532;2023-06-04T00:03:27;8.80;;;3.25;;
51556;SDS011;38766;53.194;5.532;2023-06-04T00:05:53;11.13;;;3.15;;
51556;SDS011;38766;53.194;5.532;2023-06-04T00:08:19;11.55;;;3.40;;
51556;SDS011;38766;53.194;5.532;2023-06-04T00:10:44;6.75;;;3.08;;
51556;SDS011;38766;53.194;5.532;2023-06-04T00:13:10;9.80;;;3.28;;
51556;SDS011;38766;53.194;5.532;2023-06-04T00:15:35;7.22;;;3.08;;
51556;SDS011;38766;53.194;5.532;2023-06-04T00:18:01;6.72;;;3.08;;
51556;SDS011;38766;53.194;5.532;2023-06-04T00:20:26;5.75;;;3.17;;
51556;SDS011;38766;53.194;5.532;2023-06-04T00:22:52;8.50;;;3.10;;
51556;SDS011;38766;53.194;5.532;2023-06-04T00:25:18;6.60;;;3.10;;
51556;SDS011;38766;53.194;5.532;2023-06-04T00:27:43;8.77;;;2.88;;
51556;SDS011;38766;53.194;5.532;2023-06-04T00:30:09;9.27;;;3.25;;
51556;SDS011;38766;53.194;5.532;2023-06-04T00:32:35;8.95;;;3.40;;
51556;SDS011;38766;53.194;5.532;2023-06-04T00:35:01;9.05;;;3.20;;
51556;SDS011;38766;53.194;5.532;2023-06-04T00:37:28;13.00;;;3.40;;
51556;SDS011;38766;53.194;5.532;2023-06-04T00:39:54;9.35;;;3.20;;
51556;SDS011;38766;53.194;5.532;2023-06-04T00:42:20;9.55;;;3.13;;
51556;SDS011;38766;53.194;5.532;2023-06-04T00:44:46;9.02;;;3.35;;
51556;SDS011;38766;53.194;5.532;2023-06-04T00:47:13;7.72;;;3.10;;
51556;SDS011;38766;53.194;5.532;2023-06-04T00:49:39;4.72;;;3.05;;
51556;SDS011;38766;53.194;5.532;2023-06-04T00:52:07;14.43;;;3.28;;
51556;SDS011;38766;53.194;5.532;2023-06-04T00:54:34;8.20;;;2.60;;
51556;SDS011;38766;53.194;5.532;2023-06-04T00:57:06;8.77;;;3.05;;
51556;SDS011;38766;53.194;5.532;2023-06-04T00:59:33;7.72;;;3.35;;
51556;SDS011;38766;53.194;5.532;2023-06-04T01:02:23;7.15;;;3.28;;
51556;SDS011;38766;53.194;5.532;2023-06-04T01:04:53;10.13;;;3.22;;
51556;SDS011;38766;53.194;5.532;2023-06-04T01:07:39;5.70;;;3.22;;
51556;SDS011;38766;53.194;5.532;2023-06-04T01:10:06;13.30;;;3.53;;
51556;SDS011;38766;53.194;5.532;2023-06-04T01:12:32;8.48;;;3.17;;
51556;SDS011;38766;53.194;5.532;2023-06-04T01:14:58;9.10;;;2.90;;
51556;SDS011;38766;53.194;5.532;2023-06-04T01:22:48;7.25;;;3.10;;
51556;SDS011;38766;53.194;5.532;2023-06-04T01:25:37;8.00;;;3.05;;
51556;SDS011;38766;53.194;5.532;2023-06-04T01:28:05;9.90;;;3.60;;
51556;SDS011;38766;53.194;5.532;2023-06-04T01:30:33;7.93;;;3.13;;
51556;SDS011;38766;53.194;5.532;2023-06-04T01:33:01;7.78;;;2.95;;
51556;SDS011;38766;53.194;5.532;2023-06-04T01:35:28;8.75;;;3.20;;
51556;SDS011;38766;53.194;5.532;2023-06-04T01:37:56;8.98;;;3.45;;
51556;SDS011;38766;53.194;5.532;2023-06-04T01:40:22;8.85;;;2.88;;
51556;SDS011;38766;53.194;5.532;2023-06-04T01:42:50;10.13;;;3.40;;
51556;SDS011;38766;53.194;5.532;2023-06-04T01:45:15;10.40;;;3.45;;
51556;SDS011;38766;53.194;5.532;2023-06-04T01:47:41;5.65;;;2.70;;
51556;SDS011;38766;53.194;5.532;2023-06-04T01:50:09;7.13;;;3.20;;
51556;SDS011;38766;53.194;5.532;2023-06-04T01:52:38;11.93;;;3.38;;
51556;SDS011;38766;53.194;5.532;2023-06-04T01:55:05;10.23;;;3.08;;
51556;SDS011;38766;53.194;5.532;2023-06-04T01:57:32;7.55;;;3.03;;
51556;SDS011;38766;53.194;5.532;2023-06-04T02:00:01;9.50;;;3.30;;
51556;SDS011;38766;53.194;5.532;2023-06-04T02:02:28;9.30;;;3.67;;
51556;SDS011;38766;53.194;5.532;2023-06-04T02:04:54;11.45;;;3.25;;
51556;SDS011;38766;53.194;5.532;2023-06-04T02:07:20;8.60;;;3.13;;
51556;SDS011;38766;53.194;5.532;2023-06-04T02:09:46;7.05;;;2.88;;
51556;SDS011;38766;53.194;5.532;2023-06-04T02:12:12;5.70;;;2.97;;
51556;SDS011;38766;53.194;5.532;2023-06-04T02:14:38;9.55;;;3.30;;
51556;SDS011;38766;53.194;5.532;2023-06-04T02:17:04;5.65;;;3.15;;
51556;SDS011;38766;53.194;5.532;2023-06-04T02:19:37;9.27;;;3.60;;
51556;SDS011;38766;53.194;5.532;2023-06-04T02:22:13;8.73;;;2.90;;
51556;SDS011;38766;53.194;5.532;2023-06-04T02:24:39;10.10;;;3.15;;
51556;SDS011;38766;53.194;5.532;2023-06-04T02:27:08;10.90;;;3.70;;
51556;SDS011;38766;53.194;5.532;2023-06-04T02:29:35;8.85;;;3.72;;
51556;SDS011;38766;53.194;5.532;2023-06-04T02:32:03;10.23;;;3.35;;
51556;SDS011;38766;53.194;5.532;2023-06-04T02:34:29;8.20;;;3.20;;
51556;SDS011;38766;53.194;5.532;2023-06-04T02:36:55;6.05;;;3.08;;
51556;SDS011;38766;53.194;5.532;2023-06-04T02:39:23;6.43;;;3.42;;
51556;SDS011;38766;53.194;5.532;2023-06-04T02:41:49;9.32;;;3.38;;
51556;SDS011;38766;53.194;5.532;2023-06-04T02:44:14;10.68;;;3.47;;
51556;SDS011;38766;53.194;5.532;2023-06-04T02:46:40;10.70;;;3.00;;
51556;SDS011;38766;53.194;5.532;2023-06-04T02:49:06;8.18;;;3.35;;
51556;SDS011;38766;53.194;5.532;2023-06-04T02:51:31;7.75;;;3.20;;
51556;SDS011;38766;53.194;5.532;2023-06-04T02:53:57;8.05;;;3.70;;
51556;SDS011;38766;53.194;5.532;2023-06-04T02:56:23;7.78;;;3.50;;
51556;SDS011;38766;53.194;5.532;2023-06-04T02:58:53;8.43;;;3.30;;
51556;SDS011;38766;53.194;5.532;2023-06-04T03:01:24;11.07;;;3.20;;
51556;SDS011;38766;53.194;5.532;2023-06-04T03:03:56;10.07;;;3.60;;
51556;SDS011;38766;53.194;5.532;2023-06-04T03:06:28;9.52;;;3.22;;
51556;SDS011;38766;53.194;5.532;2023-06-04T03:08:54;7.00;;;3.20;;
51556;SDS011;38766;53.194;5.532;2023-06-04T03:11:20;6.13;;;3.33;;
51556;SDS011;38766;53.194;5.532;2023-06-04T03:13:46;9.82;;;3.22;;
51556;SDS011;38766;53.194;5.532;2023-06-04T03:16:12;9.70;;;3.38;;
51556;SDS011;38766;53.194;5.532;2023-06-04T03:18:42;10.73;;;3.80;;
51556;SDS011;38766;53.194;5.532;2023-06-04T03:21:10;11.40;;;3.72;;
51556;SDS011;38766;53.194;5.532;2023-06-04T03:23:36;10.40;;;3.38;;
51556;SDS011;38766;53.194;5.532;2023-06-04T03:26:02;10.57;;;3.72;;
51556;SDS011;38766;53.194;5.532;2023-06-04T03:28:29;7.60;;;3.10;;
51556;SDS011;38766;53.194;5.532;2023-06-04T03:30:56;9.88;;;3.65;;
51556;SDS011;38766;53.194;5.532;2023-06-04T03:33:21;10.82;;;4.13;;
51556;SDS011;38766;53.194;5.532;2023-06-04T03:35:47;11.25;;;4.22;;
51556;SDS011;38766;53.194;5.532;2023-06-04T03:38:13;11.40;;;3.65;;
51556;SDS011;38766;53.194;5.532;2023-06-04T03:40:40;10.88;;;3.65;;
51556;SDS011;38766;53.194;5.532;2023-06-04T03:43:06;10.10;;;4.22;;
51556;SDS011;38766;53.194;5.532;2023-06-04T03:45:32;10.25;;;4.20;;
51556;SDS011;38766;53.194;5.532;2023-06-04T03:47:57;9.90;;;4.18;;
51556;SDS011;38766;53.194;5.532;2023-06-04T03:50:23;9.38;;;4.13;;
51556;SDS011;38766;53.194;5.532;2023-06-04T03:52:49;11.02;;;4.43;;
51556;SDS011;38766;53.194;5.532;2023-06-04T03:55:14;9.57;;;4.22;;
51556;SDS011;38766;53.194;5.532;2023-06-04T03:57:40;9.30;;;3.90;;
51556;SDS011;38766;53.194;5.532;2023-06-04T04:00:07;10.77;;;4.45;;
51556;SDS011;38766;53.194;5.532;2023-06-04T04:02:37;10.43;;;4.47;;
51556;SDS011;38766;53.194;5.532;2023-06-04T04:05:03;13.90;;;4.65;;
51556;SDS011;38766;53.194;5.532;2023-06-04T04:07:29;12.07;;;5.05;;
51556;SDS011;38766;53.194;5.532;2023-06-04T04:09:55;10.05;;;4.65;;
51556;SDS011;38766;53.194;5.532;2023-06-04T04:12:20;9.90;;;5.05;;
51556;SDS011;38766;53.194;5.532;2023-06-04T04:14:46;9.13;;;4.40;;
51556;SDS011;38766;53.194;5.532;2023-06-04T04:17:13;8.50;;;4.60;;
51556;SDS011;38766;53.194;5.532;2023-06-04T04:19:39;11.70;;;5.00;;
51556;SDS011;38766;53.194;5.532;2023-06-04T04:22:04;9.60;;;4.85;;
51556;SDS011;38766;53.194;5.532;2023-06-04T04:24:31;11.70;;;4.70;;
51556;SDS011;38766;53.194;5.532;2023-06-04T04:26:59;10.27;;;5.07;;
51556;SDS011;38766;53.194;5.532;2023-06-04T04:29:25;13.77;;;4.97;;
51556;SDS011;38766;53.194;5.532;2023-06-04T04:31:52;12.88;;;5.32;;
51556;SDS011;38766;53.194;5.532;2023-06-04T04:34:21;23.73;;;5.35;;
51556;SDS011;38766;53.194;5.532;2023-06-04T04:36:47;7.85;;;4.82;;
51556;SDS011;38766;53.194;5.532;2023-06-04T04:39:18;12.10;;;5.00;;
51556;SDS011;38766;53.194;5.532;2023-06-04T04:41:53;9.68;;;4.70;;
51556;SDS011;38766;53.194;5.532;2023-06-04T04:44:19;9.90;;;5.10;;
51556;SDS011;38766;53.194;5.532;2023-06-04T04:46:45;8.50;;;5.05;;
51556;SDS011;38766;53.194;5.532;2023-06-04T04:49:13;13.57;;;5.07;;
51556;SDS011;38766;53.194;5.532;2023-06-04T04:51:39;11.05;;;5.20;;
51556;SDS011;38766;53.194;5.532;2023-06-04T04:54:05;10.13;;;4.85;;
51556;SDS011;38766;53.194;5.532;2023-06-04T04:56:32;15.63;;;5.25;;
51556;SDS011;38766;53.194;5.532;2023-06-04T04:58:59;7.63;;;4.65;;
51556;SDS011;38766;53.194;5.532;2023-06-04T05:01:25;7.90;;;4.70;;
51556;SDS011;38766;53.194;5.532;2023-06-04T05:03:51;8.13;;;4.72;;
51556;SDS011;38766;53.194;5.532;2023-06-04T05:06:17;6.97;;;4.32;;
51556;SDS011;38766;53.194;5.532;2023-06-04T05:08:46;11.77;;;4.50;;
51556;SDS011;38766;53.194;5.532;2023-06-04T05:11:12;7.70;;;4.30;;
51556;SDS011;38766;53.194;5.532;2023-06-04T05:13:38;6.43;;;4.60;;
51556;SDS011;38766;53.194;5.532;2023-06-04T05:16:03;9.52;;;4.60;;
51556;SDS011;38766;53.194;5.532;2023-06-04T05:18:36;13.10;;;4.32;;
51556;SDS011;38766;53.194;5.532;2023-06-04T05:21:05;8.03;;;4.67;;
51556;SDS011;38766;53.194;5.532;2023-06-04T05:23:32;9.05;;;4.57;;
51556;SDS011;38766;53.194;5.532;2023-06-04T05:26:02;11.18;;;4.78;;
51556;SDS011;38766;53.194;5.532;2023-06-04T05:28:28;10.88;;;4.47;;
51556;SDS011;38766;53.194;5.532;2023-06-04T05:30:53;9.45;;;3.92;;
51556;SDS011;38766;53.194;5.532;2023-06-04T05:33:25;10.55;;;4.50;;
51556;SDS011;38766;53.194;5.532;2023-06-04T05:35:51;12.70;;;3.85;;
51556;SDS011;38766;53.194;5.532;2023-06-04T05:38:19;11.95;;;3.90;;
51556;SDS011;38766;53.194;5.532;2023-06-04T05:40:46;5.97;;;3.60;;
51556;SDS011;38766;53.194;5.532;2023-06-04T05:43:12;10.52;;;4.20;;
51556;SDS011;38766;53.194;5.532;2023-06-04T05:45:38;8.73;;;4.22;;
51556;SDS011;38766;53.194;5.532;2023-06-04T05:48:04;9.95;;;4.55;;
51556;SDS011;38766;53.194;5.532;2023-06-04T05:50:30;10.75;;;4.63;;
51556;SDS011;38766;53.194;5.532;2023-06-04T05:52:56;10.90;;;4.80;;
51556;SDS011;38766;53.194;5.532;2023-06-04T05:55:22;14.38;;;5.20;;
51556;SDS011;38766;53.194;5.532;2023-06-04T05:57:48;9.68;;;4.50;;
51556;SDS011;38766;53.194;5.532;2023-06-04T06:00:17;9.50;;;4.88;;
51556;SDS011;38766;53.194;5.532;2023-06-04T06:02:42;12.23;;;4.80;;
51556;SDS011;38766;53.194;5.532;2023-06-04T06:05:10;7.47;;;3.58;;
51556;SDS011;38766;53.194;5.532;2023-06-04T06:07:36;10.52;;;4.03;;
51556;SDS011;38766;53.194;5.532;2023-06-04T06:10:02;9.13;;;3.47;;
51556;SDS011;38766;53.194;5.532;2023-06-04T06:12:28;11.20;;;3.50;;
51556;SDS011;38766;53.194;5.532;2023-06-04T06:14:53;8.70;;;3.60;;
51556;SDS011;38766;53.194;5.532;2023-06-04T06:17:19;8.50;;;3.72;;
51556;SDS011;38766;53.194;5.532;2023-06-04T06:19:45;7.88;;;3.33;;
51556;SDS011;38766;53.194;5.532;2023-06-04T06:22:10;11.48;;;3.45;;
51556;SDS011;38766;53.194;5.532;2023-06-04T06:24:36;7.93;;;3.40;;
51556;SDS011;38766;53.194;5.532;2023-06-04T06:27:02;9.60;;;3.30;;
51556;SDS011;38766;53.194;5.532;2023-06-04T06:29:28;9.80;;;3.45;;
51556;SDS011;38766;53.194;5.532;2023-06-04T06:31:54;10.55;;;3.10;;
51556;SDS011;38766;53.194;5.532;2023-06-04T06:34:20;10.73;;;3.05;;
51556;SDS011;38766;53.194;5.532;2023-06-04T06:36:46;8.50;;;3.00;;
51556;SDS011;38766;53.194;5.532;2023-06-04T06:39:12;7.63;;;3.42;;
51556;SDS011;38766;53.194;5.532;2023-06-04T06:41:40;8.13;;;3.50;;
51556;SDS011;38766;53.194;5.532;2023-06-04T06:44:09;5.85;;;2.70;;
51556;SDS011;38766;53.194;5.532;2023-06-04T06:46:37;7.57;;;2.97;;
51556;SDS011;38766;53.194;5.532;2023-06-04T06:49:02;10.60;;;3.78;;
51556;SDS011;38766;53.194;5.532;2023-06-04T06:51:28;9.65;;;3.67;;
51556;SDS011;38766;53.194;5.532;2023-06-04T06:53:54;6.65;;;2.90;;
51556;SDS011;38766;53.194;5.532;2023-06-04T06:56:19;7.63;;;3.42;;
51556;SDS011;38766;53.194;5.532;2023-06-04T06:58:48;7.35;;;2.67;;
51556;SDS011;38766;53.194;5.532;2023-06-04T07:01:14;8.45;;;3.13;;
51556;SDS011;38766;53.194;5.532;2023-06-04T07:03:40;9.55;;;3.42;;
51556;SDS011;38766;53.194;5.532;2023-06-04T07:06:06;7.10;;;2.85;;
51556;SDS011;38766;53.194;5.532;2023-06-04T07:08:32;6.07;;;2.33;;
51556;SDS011;38766;53.194;5.532;2023-06-04T07:10:58;9.40;;;3.53;;
51556;SDS011;38766;53.194;5.532;2023-06-04T07:13:24;5.47;;;2.60;;
51556;SDS011;38766;53.194;5.532;2023-06-04T07:15:50;7.07;;;2.60;;
51556;SDS011;38766;53.194;5.532;2023-06-04T07:18:16;4.95;;;2.13;;
51556;SDS011;38766;53.194;5.532;2023-06-04T07:20:41;8.57;;;2.47;;
51556;SDS011;38766;53.194;5.532;2023-06-04T07:23:07;6.07;;;2.45;;
51556;SDS011;38766;53.194;5.532;2023-06-04T07:25:33;10.73;;;3.08;;
51556;SDS011;38766;53.194;5.532;2023-06-04T07:27:59;11.25;;;2.38;;
51556;SDS011;38766;53.194;5.532;2023-06-04T07:30:25;7.90;;;2.42;;
51556;SDS011;38766;53.194;5.532;2023-06-04T07:32:51;7.15;;;2.60;;
51556;SDS011;38766;53.194;5.532;2023-06-04T07:35:16;6.50;;;2.70;;
51556;SDS011;38766;53.194;5.532;2023-06-04T07:37:42;6.13;;;2.63;;
51556;SDS011;38766;53.194;5.532;2023-06-04T07:40:10;6.13;;;2.30;;
51556;SDS011;38766;53.194;5.532;2023-06-04T07:42:36;7.50;;;2.72;;
51556;SDS011;38766;53.194;5.532;2023-06-04T07:45:02;7.05;;;2.85;;
51556;SDS011;38766;53.194;5.532;2023-06-04T07:47:31;8.02;;;3.20;;
51556;SDS011;38766;53.194;5.532;2023-06-04T07:49:57;5.63;;;2.40;;
51556;SDS011;38766;53.194;5.532;2023-06-04T07:52:22;5.32;;;2.65;;
51556;SDS011;38766;53.194;5.532;2023-06-04T07:54:48;6.90;;;2.40;;
51556;SDS011;38766;53.194;5.532;2023-06-04T07:57:14;6.93;;;2.50;;
51556;SDS011;38766;53.194;5.532;2023-06-04T07:59:39;7.10;;;2.75;;
51556;SDS011;38766;53.194;5.532;2023-06-04T08:02:05;5.22;;;2.30;;
51556;SDS011;38766;53.194;5.532;2023-06-04T08:04:31;6.85;;;2.97;;
51556;SDS011;38766;53.194;5.532;2023-06-04T08:06:56;6.55;;;2.45;;
51556;SDS011;38766;53.194;5.532;2023-06-04T08:09:22;5.40;;;2.45;;
51556;SDS011;38766;53.194;5.532;2023-06-04T08:11:48;7.80;;;2.53;;
51556;SDS011;38766;53.194;5.532;2023-06-04T08:14:14;6.22;;;2.85;;
51556;SDS011;38766;53.194;5.532;2023-06-04T08:16:40;9.38;;;2.38;;
51556;SDS011;38766;53.194;5.532;2023-06-04T08:19:06;7.95;;;2.70;;
51556;SDS011;38766;53.194;5.532;2023-06-04T08:21:33;7.18;;;2.35;;
51556;SDS011;38766;53.194;5.532;2023-06-04T08:23:59;5.68;;;2.45;;
51556;SDS011;38766;53.194;5.532;2023-06-04T08:26:25;8.80;;;2.80;;
51556;SDS011;38766;53.194;5.532;2023-06-04T08:28:52;4.82;;;2.20;;
51556;SDS011;38766;53.194;5.532;2023-06-04T08:31:18;8.20;;;2.40;;
51556;SDS011;38766;53.194;5.532;2023-06-04T08:33:47;6.15;;;2.22;;
51556;SDS011;38766;53.194;5.532;2023-06-04T08:36:13;5.68;;;2.00;;
51556;SDS011;38766;53.194;5.532;2023-06-04T08:38:41;6.50;;;1.95;;
51556;SDS011;38766;53.194;5.532;2023-06-04T08:41:13;6.28;;;2.40;;
51556;SDS011;38766;53.194;5.532;2023-06-04T08:43:42;3.22;;;2.13;;
51556;SDS011;38766;53.194;5.532;2023-06-04T08:46:09;5.00;;;2.00;;
51556;SDS011;38766;53.194;5.532;2023-06-04T08:48:35;6.90;;;2.50;;
51556;SDS011;38766;53.194;5.532;2023-06-04T08:51:02;4.25;;;2.22;;
51556;SDS011;38766;53.194;5.532;2023-06-04T08:53:35;5.43;;;2.42;;
51556;SDS011;38766;53.194;5.532;2023-06-04T08:56:01;5.47;;;2.97;;
51556;SDS011;38766;53.194;5.532;2023-06-04T08:58:30;6.38;;;2.38;;
51556;SDS011;38766;53.194;5.532;2023-06-04T09:00:58;5.88;;;2.10;;
51556;SDS011;38766;53.194;5.532;2023-06-04T09:03:26;5.30;;;2.40;;
51556;SDS011;38766;53.194;5.532;2023-06-04T09:05:53;6.85;;;1.90;;
51556;SDS011;38766;53.194;5.532;2023-06-04T09:08:20;3.30;;;2.13;;
51556;SDS011;38766;53.194;5.532;2023-06-04T09:10:48;7.95;;;2.22;;
51556;SDS011;38766;53.194;5.532;2023-06-04T09:13:17;4.03;;;2.03;;
51556;SDS011;38766;53.194;5.532;2023-06-04T09:15:45;4.07;;;2.05;;
51556;SDS011;38766;53.194;5.532;2023-06-04T09:18:11;4.63;;;1.90;;
51556;SDS011;38766;53.194;5.532;2023-06-04T09:20:37;4.30;;;2.03;;
51556;SDS011;38766;53.194;5.532;2023-06-04T09:23:12;4.30;;;2.08;;
51556;SDS011;38766;53.194;5.532;2023-06-04T09:25:43;4.18;;;1.83;;
51556;SDS011;38766;53.194;5.532;2023-06-04T09:28:09;4.47;;;2.33;;
51556;SDS011;38766;53.194;5.532;2023-06-04T09:30:34;5.22;;;1.77;;
51556;SDS011;38766;53.194;5.532;2023-06-04T09:33:07;4.07;;;1.88;;
51556;SDS011;38766;53.194;5.532;2023-06-04T09:35:33;6.53;;;2.22;;
51556;SDS011;38766;53.194;5.532;2023-06-04T09:37:59;2.85;;;2.20;;
51556;SDS011;38766;53.194;5.532;2023-06-04T09:40:34;4.32;;;2.20;;
51556;SDS011;38766;53.194;5.532;2023-06-04T09:43:01;5.07;;;1.70;;
51556;SDS011;38766;53.194;5.532;2023-06-04T09:47:54;4.50;;;1.95;;
51556;SDS011;38766;53.194;5.532;2023-06-04T09:50:25;5.82;;;2.08;;
51556;SDS011;38766;53.194;5.532;2023-06-04T09:52:52;7.25;;;1.70;;
51556;SDS011;38766;53.194;5.532;2023-06-04T09:55:18;4.35;;;2.10;;
51556;SDS011;38766;53.194;5.532;2023-06-04T09:57:48;3.30;;;2.13;;
51556;SDS011;38766;53.194;5.532;2023-06-04T10:00:16;4.03;;;1.95;;
51556;SDS011;38766;53.194;5.532;2023-06-04T10:02:43;5.13;;;1.90;;
51556;SDS011;38766;53.194;5.532;2023-06-04T10:05:11;3.40;;;1.80;;
51556;SDS011;38766;53.194;5.532;2023-06-04T10:07:44;4.60;;;2.10;;
51556;SDS011;38766;53.194;5.532;2023-06-04T10:10:14;3.83;;;1.92;;
51556;SDS011;38766;53.194;5.532;2023-06-04T10:12:41;3.28;;;1.80;;
51556;SDS011;38766;53.194;5.532;2023-06-04T10:15:11;4.60;;;2.08;;
51556;SDS011;38766;53.194;5.532;2023-06-04T10:17:38;5.25;;;2.15;;
51556;SDS011;38766;53.194;5.532;2023-06-04T10:20:04;2.38;;;1.90;;
51556;SDS011;38766;53.194;5.532;2023-06-04T10:22:34;4.70;;;2.10;;
51556;SDS011;38766;53.194;5.532;2023-06-04T10:25:00;4.43;;;1.85;;
51556;SDS011;38766;53.194;5.532;2023-06-04T10:27:27;4.90;;;1.85;;
51556;SDS011;38766;53.194;5.532;2023-06-04T10:29:55;8.85;;;2.42;;
51556;SDS011;38766;53.194;5.532;2023-06-04T10:32:21;4.50;;;1.90;;
51556;SDS011;38766;53.194;5.532;2023-06-04T10:34:47;4.85;;;1.92;;
51556;SDS011;38766;53.194;5.532;2023-06-04T10:37:19;6.45;;;2.35;;
51556;SDS011;38766;53.194;5.532;2023-06-04T10:39:50;4.20;;;2.37;;
51556;SDS011;38766;53.194;5.532;2023-06-04T10:42:20;2.42;;;2.08;;
51556;SDS011;38766;53.194;5.532;2023-06-04T10:44:47;3.10;;;2.10;;
51556;SDS011;38766;53.194;5.532;2023-06-04T10:47:21;2.95;;;1.90;;
51556;SDS011;38766;53.194;5.532;2023-06-04T10:49:55;2.45;;;1.77;;
51556;SDS011;38766;53.194;5.532;2023-06-04T10:52:33;2.72;;;1.80;;
51556;SDS011;38766;53.194;5.532;2023-06-04T10:55:05;4.00;;;1.85;;
51556;SDS011;38766;53.194;5.532;2023-06-04T10:57:32;3.13;;;2.10;;
51556;SDS011;38766;53.194;5.532;2023-06-04T10:59:58;3.78;;;1.75;;
51556;SDS011;38766;53.194;5.532;2023-06-04T11:02:25;3.67;;;1.85;;
51556;SDS011;38766;53.194;5.532;2023-06-04T11:04:58;3.60;;;1.65;;
51556;SDS011;38766;53.194;5.532;2023-06-04T11:07:40;6.28;;;2.30;;
51556;SDS011;38766;53.194;5.532;2023-06-04T11:10:12;4.00;;;2.22;;
51556;SDS011;38766;53.194;5.532;2023-06-04T11:12:45;6.75;;;2.67;;
51556;SDS011;38766;53.194;5.532;2023-06-04T11:15:17;5.22;;;2.30;;
51556;SDS011;38766;53.194;5.532;2023-06-04T11:20:19;4.80;;;1.77;;
51556;SDS011;38766;53.194;5.532;2023-06-04T11:22:53;4.30;;;1.85;;
51556;SDS011;38766;53.194;5.532;2023-06-04T11:25:19;7.07;;;2.20;;
51556;SDS011;38766;53.194;5.532;2023-06-04T11:27:47;4.30;;;2.03;;
51556;SDS011;38766;53.194;5.532;2023-06-04T11:30:16;3.50;;;1.95;;
51556;SDS011;38766;53.194;5.532;2023-06-04T11:32:42;3.45;;;1.95;;
51556;SDS011;38766;53.194;5.532;2023-06-04T11:35:09;2.75;;;1.70;;
51556;SDS011;38766;53.194;5.532;2023-06-04T11:37:36;5.07;;;2.10;;
51556;SDS011;38766;53.194;5.532;2023-06-04T11:40:03;4.70;;;1.98;;
51556;SDS011;38766;53.194;5.532;2023-06-04T11:42:42;3.17;;;1.63;;
51556;SDS011;38766;53.194;5.532;2023-06-04T11:45:09;4.00;;;1.83;;
51556;SDS011;38766;53.194;5.532;2023-06-04T11:47:37;5.80;;;2.10;;
51556;SDS011;38766;53.194;5.532;2023-06-04T11:50:02;3.45;;;2.10;;
51556;SDS011;38766;53.194;5.532;2023-06-04T11:52:29;4.93;;;2.33;;
51556;SDS011;38766;53.194;5.532;2023-06-04T11:54:55;6.25;;;2.33;;
51556;SDS011;38766;53.194;5.532;2023-06-04T11:57:21;4.50;;;1.90;;
51556;SDS011;38766;53.194;5.532;2023-06-04T11:59:47;4.47;;;1.77;;
51556;SDS011;38766;53.194;5.532;2023-06-04T12:02:12;5.95;;;2.05;;
51556;SDS011;38766;53.194;5.532;2023-06-04T12:04:38;3.03;;;1.92;;
51556;SDS011;38766;53.194;5.532;2023-06-04T12:07:04;3.47;;;2.15;;
51556;SDS011;38766;53.194;5.532;2023-06-04T12:09:31;4.82;;;2.17;;
51556;SDS011;38766;53.194;5.532;2023-06-04T12:12:04;6.57;;;2.15;;
51556;SDS011;38766;53.194;5.532;2023-06-04T12:14:31;6.03;;;2.35;;
51556;SDS011;38766;53.194;5.532;2023-06-04T12:17:06;3.15;;;2.20;;
51556;SDS011;38766;53.194;5.532;2023-06-04T12:19:44;5.60;;;2.00;;
51556;SDS011;38766;53.194;5.532;2023-06-04T12:22:13;5.40;;;1.85;;
51556;SDS011;38766;53.194;5.532;2023-06-04T12:24:46;6.63;;;2.00;;
51556;SDS011;38766;53.194;5.532;2023-06-04T12:27:19;3.55;;;2.25;;
51556;SDS011;38766;53.194;5.532;2023-06-04T12:30:08;4.45;;;2.25;;
51556;SDS011;38766;53.194;5.532;2023-06-04T12:32:34;4.50;;;2.38;;
51556;SDS011;38766;53.194;5.532;2023-06-04T12:35:00;3.25;;;1.90;;
51556;SDS011;38766;53.194;5.532;2023-06-04T12:37:26;7.00;;;2.63;;
51556;SDS011;38766;53.194;5.532;2023-06-04T12:39:52;5.88;;;2.30;;
51556;SDS011;38766;53.194;5.532;2023-06-04T12:42:19;4.20;;;1.90;;
51556;SDS011;38766;53.194;5.532;2023-06-04T12:44:45;2.92;;;2.28;;
51556;SDS011;38766;53.194;5.532;2023-06-04T12:47:11;4.50;;;2.20;;
51556;SDS011;38766;53.194;5.532;2023-06-04T12:49:36;4.90;;;2.10;;
51556;SDS011;38766;53.194;5.532;2023-06-04T12:52:03;2.63;;;1.92;;
51556;SDS011;38766;53.194;5.532;2023-06-04T12:54:29;4.10;;;1.98;;
51556;SDS011;38766;53.194;5.532;2023-06-04T12:56:55;3.80;;;2.28;;
51556;SDS011;38766;53.194;5.532;2023-06-04T12:59:22;3.45;;;2.00;;
51556;SDS011;38766;53.194;5.532;2023-06-04T13:01:49;4.32;;;2.20;;
51556;SDS011;38766;53.194;5.532;2023-06-04T13:04:15;3.22;;;2.15;;
51556;SDS011;38766;53.194;5.532;2023-06-04T13:06:40;3.33;;;2.20;;
51556;SDS011;38766;53.194;5.532;2023-06-04T13:09:06;4.28;;;2.05;;
51556;SDS011;38766;53.194;5.532;2023-06-04T13:11:39;4.63;;;2.03;;
51556;SDS011;38766;53.194;5.532;2023-06-04T13:14:07;4.32;;;2.28;;
51556;SDS011;38766;53.194;5.532;2023-06-04T13:16:33;5.00;;;2.30;;
51556;SDS011;38766;53.194;5.532;2023-06-04T13:18:59;2.50;;;2.03;;
51556;SDS011;38766;53.194;5.532;2023-06-04T13:21:25;3.40;;;2.40;;
51556;SDS011;38766;53.194;5.532;2023-06-04T13:23:51;5.53;;;2.20;;
51556;SDS011;38766;53.194;5.532;2023-06-04T13:26:16;3.83;;;2.30;;
51556;SDS011;38766;53.194;5.532;2023-06-04T13:28:43;5.13;;;2.30;;
51556;SDS011;38766;53.194;5.532;2023-06-04T13:31:08;5.72;;;2.60;;
51556;SDS011;38766;53.194;5.532;2023-06-04T13:33:34;4.35;;;2.10;;
51556;SDS011;38766;53.194;5.532;2023-06-04T13:36:02;6.45;;;2.20;;
51556;SDS011;38766;53.194;5.532;2023-06-04T13:38:28;4.15;;;2.20;;
51556;SDS011;38766;53.194;5.532;2023-06-04T13:40:53;3.90;;;2.10;;
51556;SDS011;38766;53.194;5.532;2023-06-04T13:43:19;5.05;;;1.90;;
51556;SDS011;38766;53.194;5.532;2023-06-04T13:45:45;5.90;;;2.53;;
51556;SDS011;38766;53.194;5.532;2023-06-04T13:48:11;6.68;;;2.10;;
51556;SDS011;38766;53.194;5.532;2023-06-04T13:50:37;4.47;;;2.00;;
51556;SDS011;38766;53.194;5.532;2023-06-04T13:53:03;4.90;;;2.05;;
51556;SDS011;38766;53.194;5.532;2023-06-04T13:55:29;5.03;;;1.92;;
51556;SDS011;38766;53.194;5.532;2023-06-04T13:57:55;3.45;;;2.20;;
51556;SDS011;38766;53.194;5.532;2023-06-04T14:00:20;4.10;;;2.03;;
51556;SDS011;38766;53.194;5.532;2023-06-04T14:02:47;4.45;;;2.42;;
51556;SDS011;38766;53.194;5.532;2023-06-04T14:05:13;6.45;;;3.05;;
51556;SDS011;38766;53.194;5.532;2023-06-04T14:07:40;4.88;;;2.20;;
51556;SDS011;38766;53.194;5.532;2023-06-04T14:10:07;3.13;;;1.95;;
51556;SDS011;38766;53.194;5.532;2023-06-04T14:12:34;5.20;;;2.17;;
51556;SDS011;38766;53.194;5.532;2023-06-04T14:15:00;5.07;;;2.30;;
51556;SDS011;38766;53.194;5.532;2023-06-04T14:17:26;4.70;;;1.90;;
51556;SDS011;38766;53.194;5.532;2023-06-04T14:19:51;5.43;;;2.38;;
51556;SDS011;38766;53.194;5.532;2023-06-04T14:22:17;4.07;;;1.92;;
51556;SDS011;38766;53.194;5.532;2023-06-04T14:24:43;4.43;;;2.30;;
51556;SDS011;38766;53.194;5.532;2023-06-04T14:27:08;4.47;;;2.22;;
51556;SDS011;38766;53.194;5.532;2023-06-04T14:29:35;3.22;;;2.20;;
51556;SDS011;38766;53.194;5.532;2023-06-04T14:32:01;3.50;;;2.00;;
51556;SDS011;38766;53.194;5.532;2023-06-04T14:34:27;9.30;;;2.63;;
51556;SDS011;38766;53.194;5.532;2023-06-04T14:36:54;4.93;;;2.45;;
51556;SDS011;38766;53.194;5.532;2023-06-04T14:39:19;5.47;;;3.00;;
51556;SDS011;38766;53.194;5.532;2023-06-04T14:41:45;9.70;;;3.40;;
51556;SDS011;38766;53.194;5.532;2023-06-04T14:44:10;8.38;;;3.15;;
51556;SDS011;38766;53.194;5.532;2023-06-04T14:46:36;6.20;;;3.65;;
51556;SDS011;38766;53.194;5.532;2023-06-04T14:49:02;4.70;;;2.40;;
51556;SDS011;38766;53.194;5.532;2023-06-04T14:51:27;5.13;;;2.22;;
51556;SDS011;38766;53.194;5.532;2023-06-04T14:53:53;3.80;;;2.10;;
51556;SDS011;38766;53.194;5.532;2023-06-04T14:56:18;3.90;;;2.15;;